sensor_id;sensor_type;location;lat;lon;timestamp;P1;P2;P0
27143;PMS1003;14672;50.250;8.312;2023-04-24T00:00:30;7.00;7.00;1.50
27143;PMS1003;14672;50.250;8.312;2023-04-24T00:02:56;7.75;7.75;1.00
27143;PMS1003;14672;50.250;8.312;2023-04-24T00:05:23;9.00;9.00;3.00
27143;PMS1003;14672;50.250;8.312;2023-04-24T00:07:49;10.25;9.75;3.75
27143;PMS1003;14672;50.250;8.312;2023-04-24T00:10:19;8.00;8.00;3.00
27143;PMS1003;14672;50.250;8.312;2023-04-24T00:12:45;7.00;7.00;1.00
27143;PMS1003;14672;50.250;8.312;2023-04-24T00:15:11;8.67;8.67;3.00
27143;PMS1003;14672;50.250;8.312;2023-04-24T00:17:37;9.00;9.00;3.75
27143;PMS1003;14672;50.250;8.312;2023-04-24T00:20:04;9.00;8.00;1.00
27143;PMS1003;14672;50.250;8.312;2023-04-24T00:22:32;6.00;6.00;2.00
27143;PMS1003;14672;50.250;8.312;2023-04-24T00:24:58;10.50;9.00;3.00
27143;PMS1003;14672;50.250;8.312;2023-04-24T00:27:24;8.00;7.75;3.00
27143;PMS1003;14672;50.250;8.312;2023-04-24T00:29:50;8.00;7.75;3.00
27143;PMS1003;14672;50.250;8.312;2023-04-24T00:32:15;11.00;11.00;4.00
27143;PMS1003;14672;50.250;8.312;2023-04-24T00:34:42;9.00;8.00;3.00
27143;PMS1003;14672;50.250;8.312;2023-04-24T00:37:08;9.00;9.00;3.33
27143;PMS1003;14672;50.250;8.312;2023-04-24T00:39:34;8.33;7.00;1.00
27143;PMS1003;14672;50.250;8.312;2023-04-24T00:42:00;12.00;12.00;4.67
27143;PMS1003;14672;50.250;8.312;2023-04-24T00:44:26;7.75;7.75;2.50
27143;PMS1003;14672;50.250;8.312;2023-04-24T00:46:53;6.00;6.00;3.00
27143;PMS1003;14672;50.250;8.312;2023-04-24T00:49:20;9.25;9.00;3.00
27143;PMS1003;14672;50.250;8.312;2023-04-24T00:51:47;8.50;8.50;3.00
27143;PMS1003;14672;50.250;8.312;2023-04-24T00:54:14;8.25;8.25;3.00
27143;PMS1003;14672;50.250;8.312;2023-04-24T00:56:41;6.25;6.25;1.50
27143;PMS1003;14672;50.250;8.312;2023-04-24T00:59:07;8.25;7.75;3.00
27143;PMS1003;14672;50.250;8.312;2023-04-24T01:01:33;7.00;7.00;3.00
27143;PMS1003;14672;50.250;8.312;2023-04-24T01:04:00;6.00;6.00;1.50
27143;PMS1003;14672;50.250;8.312;2023-04-24T01:06:27;8.25;6.75;1.50
27143;PMS1003;14672;50.250;8.312;2023-04-24T01:08:56;8.75;8.00;3.00
27143;PMS1003;14672;50.250;8.312;2023-04-24T01:11:24;7.00;7.00;1.00
27143;PMS1003;14672;50.250;8.312;2023-04-24T01:13:50;8.50;8.50;3.00
27143;PMS1003;14672;50.250;8.312;2023-04-24T01:16:17;9.50;9.50;3.25
27143;PMS1003;14672;50.250;8.312;2023-04-24T01:18:45;13.00;12.00;4.00
27143;PMS1003;14672;50.250;8.312;2023-04-24T01:21:13;9.75;8.50;3.25
27143;PMS1003;14672;50.250;8.312;2023-04-24T01:23:44;8.50;8.50;3.25
27143;PMS1003;14672;50.250;8.312;2023-04-24T01:26:11;6.50;6.50;1.50
27143;PMS1003;14672;50.250;8.312;2023-04-24T01:28:38;11.25;11.25;7.50
27143;PMS1003;14672;50.250;8.312;2023-04-24T01:31:05;9.00;9.00;3.00
27143;PMS1003;14672;50.250;8.312;2023-04-24T01:33:31;6.50;6.50;1.00
27143;PMS1003;14672;50.250;8.312;2023-04-24T01:35:57;9.25;8.00;1.00
27143;PMS1003;14672;50.250;8.312;2023-04-24T01:38:23;8.33;8.00;3.00
27143;PMS1003;14672;50.250;8.312;2023-04-24T01:40:49;6.67;6.67;3.00
27143;PMS1003;14672;50.250;8.312;2023-04-24T01:43:16;5.25;5.25;1.50
27143;PMS1003;14672;50.250;8.312;2023-04-24T01:45:42;6.00;6.00;1.00
27143;PMS1003;14672;50.250;8.312;2023-04-24T01:48:07;6.00;6.00;1.00
27143;PMS1003;14672;50.250;8.312;2023-04-24T01:50:33;8.00;8.00;3.00
27143;PMS1003;14672;50.250;8.312;2023-04-24T01:52:59;7.33;7.33;1.00
27143;PMS1003;14672;50.250;8.312;2023-04-24T01:55:25;7.00;6.00;1.00
27143;PMS1003;14672;50.250;8.312;2023-04-24T01:57:52;8.75;8.25;3.00
27143;PMS1003;14672;50.250;8.312;2023-04-24T02:00:21;7.00;7.00;3.00
27143;PMS1003;14672;50.250;8.312;2023-04-24T02:02:47;9.00;6.50;2.50
27143;PMS1003;14672;50.250;8.312;2023-04-24T02:05:13;8.00;6.00;2.33
27143;PMS1003;14672;50.250;8.312;2023-04-24T02:07:39;6.00;6.00;1.00
27143;PMS1003;14672;50.250;8.312;2023-04-24T02:10:05;6.00;6.00;1.00
27143;PMS1003;14672;50.250;8.312;2023-04-24T02:12:32;8.00;6.50;1.00
27143;PMS1003;14672;50.250;8.312;2023-04-24T02:14:58;4.00;4.00;0.75
27143;PMS1003;14672;50.250;8.312;2023-04-24T02:17:24;6.00;6.00;3.00
27143;PMS1003;14672;50.250;8.312;2023-04-24T02:19:50;6.00;6.00;1.00
27143;PMS1003;14672;50.250;8.312;2023-04-24T02:22:16;5.00;5.00;1.00
27143;PMS1003;14672;50.250;8.312;2023-04-24T02:24:42;6.00;6.00;2.33
27143;PMS1003;14672;50.250;8.312;2023-04-24T02:27:07;6.00;6.00;1.00
27143;PMS1003;14672;50.250;8.312;2023-04-24T02:29:33;4.33;4.33;1.00
27143;PMS1003;14672;50.250;8.312;2023-04-24T02:31:59;7.00;4.00;1.00
27143;PMS1003;14672;50.250;8.312;2023-04-24T02:34:25;6.00;6.00;1.00
27143;PMS1003;14672;50.250;8.312;2023-04-24T02:36:51;6.00;6.00;1.00
27143;PMS1003;14672;50.250;8.312;2023-04-24T02:39:18;6.00;6.00;1.00
27143;PMS1003;14672;50.250;8.312;2023-04-24T02:41:45;8.00;6.00;1.00
27143;PMS1003;14672;50.250;8.312;2023-04-24T02:44:11;6.00;6.00;3.00
27143;PMS1003;14672;50.250;8.312;2023-04-24T02:46:36;6.00;6.00;2.33
27143;PMS1003;14672;50.250;8.312;2023-04-24T02:49:03;8.00;7.00;3.00
27143;PMS1003;14672;50.250;8.312;2023-04-24T02:51:29;6.00;6.00;1.00
27143;PMS1003;14672;50.250;8.312;2023-04-24T02:53:54;5.75;5.75;1.00
27143;PMS1003;14672;50.250;8.312;2023-04-24T02:56:20;6.00;6.00;1.00
27143;PMS1003;14672;50.250;8.312;2023-04-24T02:58:46;8.67;8.00;1.00
27143;PMS1003;14672;50.250;8.312;2023-04-24T03:01:12;8.00;6.00;1.00
27143;PMS1003;14672;50.250;8.312;2023-04-24T03:03:38;6.00;6.00;1.00
27143;PMS1003;14672;50.250;8.312;2023-04-24T03:06:04;7.00;7.00;1.00
27143;PMS1003;14672;50.250;8.312;2023-04-24T03:08:33;8.00;6.00;1.00
27143;PMS1003;14672;50.250;8.312;2023-04-24T03:10:59;9.00;9.00;2.50
27143;PMS1003;14672;50.250;8.312;2023-04-24T03:13:25;8.25;8.00;3.00
27143;PMS1003;14672;50.250;8.312;2023-04-24T03:15:51;6.00;6.00;1.00
27143;PMS1003;14672;50.250;8.312;2023-04-24T03:18:18;7.00;7.00;1.00
27143;PMS1003;14672;50.250;8.312;2023-04-24T03:20:45;6.00;6.00;1.00
27143;PMS1003;14672;50.250;8.312;2023-04-24T03:23:11;8.00;8.00;3.00
27143;PMS1003;14672;50.250;8.312;2023-04-24T03:25:37;8.67;8.33;3.00
27143;PMS1003;14672;50.250;8.312;2023-04-24T03:28:03;8.75;8.50;2.50
27143;PMS1003;14672;50.250;8.312;2023-04-24T03:30:29;6.00;6.00;1.00
27143;PMS1003;14672;50.250;8.312;2023-04-24T03:32:55;6.67;6.00;1.00
27143;PMS1003;14672;50.250;8.312;2023-04-24T03:35:21;8.00;8.00;3.00
27143;PMS1003;14672;50.250;8.312;2023-04-24T03:37:47;8.75;8.25;2.50
27143;PMS1003;14672;50.250;8.312;2023-04-24T03:40:13;6.00;6.00;1.00
27143;PMS1003;14672;50.250;8.312;2023-04-24T03:42:39;10.33;8.67;2.33
27143;PMS1003;14672;50.250;8.312;2023-04-24T03:45:05;6.00;6.00;1.00
27143;PMS1003;14672;50.250;8.312;2023-04-24T03:47:31;7.50;6.00;1.00
27143;PMS1003;14672;50.250;8.312;2023-04-24T03:49:57;9.00;8.33;3.00
27143;PMS1003;14672;50.250;8.312;2023-04-24T03:52:23;8.00;8.00;3.00
27143;PMS1003;14672;50.250;8.312;2023-04-24T03:54:49;10.00;8.00;3.00
27143;PMS1003;14672;50.250;8.312;2023-04-24T03:57:14;8.67;8.67;3.33
27143;PMS1003;14672;50.250;8.312;2023-04-24T03:59:40;8.00;6.67;1.00
27143;PMS1003;14672;50.250;8.312;2023-04-24T04:02:06;8.00;6.00;3.00
27143;PMS1003;14672;50.250;8.312;2023-04-24T04:04:32;8.00;8.00;1.67
27143;PMS1003;14672;50.250;8.312;2023-04-24T04:06:58;10.00;10.00;3.00
27143;PMS1003;14672;50.250;8.312;2023-04-24T04:09:28;6.00;6.00;1.00
27143;PMS1003;14672;50.250;8.312;2023-04-24T04:11:54;10.75;10.00;2.50
27143;PMS1003;14672;50.250;8.312;2023-04-24T04:14:21;8.00;8.00;3.00
27143;PMS1003;14672;50.250;8.312;2023-04-24T04:16:48;8.00;8.00;2.00
27143;PMS1003;14672;50.250;8.312;2023-04-24T04:19:14;6.00;6.00;1.00
27143;PMS1003;14672;50.250;8.312;2023-04-24T04:21:40;6.00;6.00;1.00
27143;PMS1003;14672;50.250;8.312;2023-04-24T04:24:06;8.00;8.00;1.00
27143;PMS1003;14672;50.250;8.312;2023-04-24T04:26:32;8.00;8.00;3.00
27143;PMS1003;14672;50.250;8.312;2023-04-24T04:28:58;9.33;9.33;3.67
27143;PMS1003;14672;50.250;8.312;2023-04-24T04:31:28;8.00;8.00;3.00
27143;PMS1003;14672;50.250;8.312;2023-04-24T04:33:55;9.75;9.75;3.25
27143;PMS1003;14672;50.250;8.312;2023-04-24T04:36:21;8.00;8.00;3.00
27143;PMS1003;14672;50.250;8.312;2023-04-24T04:38:49;6.00;6.00;3.00
27143;PMS1003;14672;50.250;8.312;2023-04-24T04:41:15;8.00;7.50;3.00
27143;PMS1003;14672;50.250;8.312;2023-04-24T04:43:43;7.00;7.00;2.50
27143;PMS1003;14672;50.250;8.312;2023-04-24T04:46:09;8.67;8.00;3.00
27143;PMS1003;14672;50.250;8.312;2023-04-24T04:48:36;6.50;6.00;1.50
27143;PMS1003;14672;50.250;8.312;2023-04-24T04:51:03;8.50;8.50;2.00
27143;PMS1003;14672;50.250;8.312;2023-04-24T04:53:29;8.00;8.00;3.00
27143;PMS1003;14672;50.250;8.312;2023-04-24T04:55:55;11.50;11.00;5.50
27143;PMS1003;14672;50.250;8.312;2023-04-24T04:58:21;10.00;8.00;3.00
27143;PMS1003;14672;50.250;8.312;2023-04-24T05:00:47;8.00;8.00;1.00
27143;PMS1003;14672;50.250;8.312;2023-04-24T05:03:13;8.50;8.50;3.00
27143;PMS1003;14672;50.250;8.312;2023-04-24T05:05:39;8.00;8.00;3.00
27143;PMS1003;14672;50.250;8.312;2023-04-24T05:08:06;11.25;10.00;2.00
27143;PMS1003;14672;50.250;8.312;2023-04-24T05:10:35;8.00;8.00;2.00
27143;PMS1003;14672;50.250;8.312;2023-04-24T05:13:02;8.00;8.00;3.00
27143;PMS1003;14672;50.250;8.312;2023-04-24T05:15:29;8.00;8.00;3.50
27143;PMS1003;14672;50.250;8.312;2023-04-24T05:17:55;8.00;8.00;3.00
27143;PMS1003;14672;50.250;8.312;2023-04-24T05:20:22;10.75;10.75;3.50
27143;PMS1003;14672;50.250;8.312;2023-04-24T05:22:48;10.00;9.00;4.50
27143;PMS1003;14672;50.250;8.312;2023-04-24T05:25:13;6.00;6.00;1.00
27143;PMS1003;14672;50.250;8.312;2023-04-24T05:27:40;8.00;8.00;4.50
27143;PMS1003;14672;50.250;8.312;2023-04-24T05:30:06;8.00;8.00;4.00
27143;PMS1003;14672;50.250;8.312;2023-04-24T05:32:32;9.00;8.50;3.00
27143;PMS1003;14672;50.250;8.312;2023-04-24T05:34:58;10.00;8.00;3.00
27143;PMS1003;14672;50.250;8.312;2023-04-24T05:37:24;9.33;9.33;3.00
27143;PMS1003;14672;50.250;8.312;2023-04-24T05:39:51;9.50;9.50;3.00
27143;PMS1003;14672;50.250;8.312;2023-04-24T05:42:16;8.00;8.00;3.00
27143;PMS1003;14672;50.250;8.312;2023-04-24T05:44:42;11.00;10.00;3.67
27143;PMS1003;14672;50.250;8.312;2023-04-24T05:47:08;6.00;6.00;1.00
27143;PMS1003;14672;50.250;8.312;2023-04-24T05:49:34;11.67;10.33;2.33
27143;PMS1003;14672;50.250;8.312;2023-04-24T05:52:00;10.33;8.67;2.33
27143;PMS1003;14672;50.250;8.312;2023-04-24T05:54:25;10.00;8.67;3.00
27143;PMS1003;14672;50.250;8.312;2023-04-24T05:56:51;11.33;10.00;3.00
27143;PMS1003;14672;50.250;8.312;2023-04-24T05:59:19;8.50;7.50;1.50
27143;PMS1003;14672;50.250;8.312;2023-04-24T06:01:45;12.00;11.00;5.00
27143;PMS1003;14672;50.250;8.312;2023-04-24T06:04:11;23.00;21.00;11.00
27143;PMS1003;14672;50.250;8.312;2023-04-24T06:06:39;29.25;24.50;11.25
27143;PMS1003;14672;50.250;8.312;2023-04-24T06:09:05;24.00;21.75;10.00
27143;PMS1003;14672;50.250;8.312;2023-04-24T06:11:31;16.50;15.50;5.75
27143;PMS1003;14672;50.250;8.312;2023-04-24T06:13:57;15.67;14.33;5.67
27143;PMS1003;14672;50.250;8.312;2023-04-24T06:16:23;20.67;19.67;10.00
27143;PMS1003;14672;50.250;8.312;2023-04-24T06:18:49;17.00;16.33;6.67
27143;PMS1003;14672;50.250;8.312;2023-04-24T06:21:16;13.50;13.50;6.00
27143;PMS1003;14672;50.250;8.312;2023-04-24T06:23:42;12.75;12.75;5.75
27143;PMS1003;14672;50.250;8.312;2023-04-24T06:26:07;17.33;17.33;6.00
27143;PMS1003;14672;50.250;8.312;2023-04-24T06:28:33;13.00;13.00;5.00
27143;PMS1003;14672;50.250;8.312;2023-04-24T06:30:59;13.75;12.25;5.25
27143;PMS1003;14672;50.250;8.312;2023-04-24T06:33:25;20.00;20.00;8.67
27143;PMS1003;14672;50.250;8.312;2023-04-24T06:35:51;22.33;18.33;10.00
27143;PMS1003;14672;50.250;8.312;2023-04-24T06:38:17;16.33;13.67;6.00
27143;PMS1003;14672;50.250;8.312;2023-04-24T06:40:43;19.00;17.67;6.00
27143;PMS1003;14672;50.250;8.312;2023-04-24T06:43:09;18.67;17.67;8.00
27143;PMS1003;14672;50.250;8.312;2023-04-24T06:45:35;33.50;31.75;17.75
27143;PMS1003;14672;50.250;8.312;2023-04-24T06:48:01;37.00;33.33;15.00
27143;PMS1003;14672;50.250;8.312;2023-04-24T06:50:27;28.25;25.00;13.00
27143;PMS1003;14672;50.250;8.312;2023-04-24T06:52:53;44.00;39.00;21.33
27143;PMS1003;14672;50.250;8.312;2023-04-24T06:55:19;22.33;22.00;13.00
27143;PMS1003;14672;50.250;8.312;2023-04-24T06:57:45;17.67;17.00;10.00
27143;PMS1003;14672;50.250;8.312;2023-04-24T07:00:11;17.33;17.33;8.00
27143;PMS1003;14672;50.250;8.312;2023-04-24T07:02:37;15.00;15.00;6.00
27143;PMS1003;14672;50.250;8.312;2023-04-24T07:05:04;13.00;13.00;5.33
27143;PMS1003;14672;50.250;8.312;2023-04-24T07:07:30;13.75;13.75;5.25
27143;PMS1003;14672;50.250;8.312;2023-04-24T07:09:56;14.00;13.25;6.00
27143;PMS1003;14672;50.250;8.312;2023-04-24T07:12:22;15.00;13.00;6.00
27143;PMS1003;14672;50.250;8.312;2023-04-24T07:14:48;14.33;14.33;5.67
27143;PMS1003;14672;50.250;8.312;2023-04-24T07:17:15;14.00;13.50;6.00
27143;PMS1003;14672;50.250;8.312;2023-04-24T07:19:42;13.75;12.50;5.00
27143;PMS1003;14672;50.250;8.312;2023-04-24T07:22:08;11.33;11.33;5.67
27143;PMS1003;14672;50.250;8.312;2023-04-24T07:24:33;15.00;13.00;5.00
27143;PMS1003;14672;50.250;8.312;2023-04-24T07:26:59;15.67;14.67;5.00
27143;PMS1003;14672;50.250;8.312;2023-04-24T07:29:28;13.50;13.50;6.00
27143;PMS1003;14672;50.250;8.312;2023-04-24T07:31:54;11.75;11.75;4.75
27143;PMS1003;14672;50.250;8.312;2023-04-24T07:34:21;17.25;14.50;6.00
27143;PMS1003;14672;50.250;8.312;2023-04-24T07:36:47;11.00;11.00;3.33
27143;PMS1003;14672;50.250;8.312;2023-04-24T07:39:13;13.00;13.00;6.00
27143;PMS1003;14672;50.250;8.312;2023-04-24T07:41:39;14.33;13.00;4.33
27143;PMS1003;14672;50.250;8.312;2023-04-24T07:44:05;13.75;13.25;4.75
27143;PMS1003;14672;50.250;8.312;2023-04-24T07:46:31;10.67;10.67;3.00
27143;PMS1003;14672;50.250;8.312;2023-04-24T07:48:57;14.50;13.00;5.00
27143;PMS1003;14672;50.250;8.312;2023-04-24T07:51:24;13.00;11.50;4.50
27143;PMS1003;14672;50.250;8.312;2023-04-24T07:53:52;14.25;13.00;4.75
27143;PMS1003;14672;50.250;8.312;2023-04-24T07:56:20;16.75;13.00;5.75
27143;PMS1003;14672;50.250;8.312;2023-04-24T07:58:46;13.00;12.75;6.00
27143;PMS1003;14672;50.250;8.312;2023-04-24T08:01:12;15.33;12.33;5.33
27143;PMS1003;14672;50.250;8.312;2023-04-24T08:03:37;13.67;13.67;5.00
27143;PMS1003;14672;50.250;8.312;2023-04-24T08:06:03;13.00;13.00;5.00
27143;PMS1003;14672;50.250;8.312;2023-04-24T08:08:29;11.50;11.50;5.75
27143;PMS1003;14672;50.250;8.312;2023-04-24T08:10:55;12.00;11.33;3.00
27143;PMS1003;14672;50.250;8.312;2023-04-24T08:13:21;10.00;10.00;3.67
27143;PMS1003;14672;50.250;8.312;2023-04-24T08:15:47;13.00;11.00;3.00
27143;PMS1003;14672;50.250;8.312;2023-04-24T08:18:13;14.67;12.67;5.00
27143;PMS1003;14672;50.250;8.312;2023-04-24T08:20:40;13.00;12.00;4.75
27143;PMS1003;14672;50.250;8.312;2023-04-24T08:23:06;10.50;9.75;4.50
27143;PMS1003;14672;50.250;8.312;2023-04-24T08:25:32;11.00;10.33;3.00
27143;PMS1003;14672;50.250;8.312;2023-04-24T08:28:00;12.00;12.00;4.75
27143;PMS1003;14672;50.250;8.312;2023-04-24T08:30:29;10.00;10.00;3.25
27143;PMS1003;14672;50.250;8.312;2023-04-24T08:32:55;11.50;11.00;3.00
27143;PMS1003;14672;50.250;8.312;2023-04-24T08:35:21;11.75;11.50;4.75
27143;PMS1003;14672;50.250;8.312;2023-04-24T08:37:48;11.00;11.00;5.25
27143;PMS1003;14672;50.250;8.312;2023-04-24T08:40:14;13.00;11.33;5.33
27143;PMS1003;14672;50.250;8.312;2023-04-24T08:42:42;14.00;10.00;3.00
27143;PMS1003;14672;50.250;8.312;2023-04-24T08:45:09;15.25;11.00;4.50
27143;PMS1003;14672;50.250;8.312;2023-04-24T08:47:38;11.00;10.50;3.50
27143;PMS1003;14672;50.250;8.312;2023-04-24T08:50:05;12.00;12.00;3.00
27143;PMS1003;14672;50.250;8.312;2023-04-24T08:52:34;16.50;13.25;5.50
27143;PMS1003;14672;50.250;8.312;2023-04-24T08:55:01;11.00;11.00;4.75
27143;PMS1003;14672;50.250;8.312;2023-04-24T08:57:28;18.50;17.00;7.75
27143;PMS1003;14672;50.250;8.312;2023-04-24T08:59:54;11.00;11.00;4.75
27143;PMS1003;14672;50.250;8.312;2023-04-24T09:02:22;11.00;11.00;4.75
27143;PMS1003;14672;50.250;8.312;2023-04-24T09:04:49;9.75;9.75;3.00
27143;PMS1003;14672;50.250;8.312;2023-04-24T09:07:16;9.75;9.75;3.00
27143;PMS1003;14672;50.250;8.312;2023-04-24T09:09:43;10.50;9.75;2.50
27143;PMS1003;14672;50.250;8.312;2023-04-24T09:12:09;9.50;9.50;3.00
27143;PMS1003;14672;50.250;8.312;2023-04-24T09:14:35;10.25;9.75;3.00
27143;PMS1003;14672;50.250;8.312;2023-04-24T09:17:04;9.00;9.00;3.00
27143;PMS1003;14672;50.250;8.312;2023-04-24T09:19:31;11.75;10.75;4.50
27143;PMS1003;14672;50.250;8.312;2023-04-24T09:21:57;13.00;10.00;3.00
27143;PMS1003;14672;50.250;8.312;2023-04-24T09:24:23;11.00;11.00;3.00
27143;PMS1003;14672;50.250;8.312;2023-04-24T09:26:49;11.33;10.33;3.00
27143;PMS1003;14672;50.250;8.312;2023-04-24T09:29:23;10.75;10.00;3.00
27143;PMS1003;14672;50.250;8.312;2023-04-24T09:31:50;9.50;8.00;3.00
27143;PMS1003;14672;50.250;8.312;2023-04-24T09:34:20;10.25;8.50;1.00
27143;PMS1003;14672;50.250;8.312;2023-04-24T09:36:49;8.00;8.00;2.00
27143;PMS1003;14672;50.250;8.312;2023-04-24T09:39:15;6.00;6.00;1.00
27143;PMS1003;14672;50.250;8.312;2023-04-24T09:41:46;10.25;7.50;1.00
27143;PMS1003;14672;50.250;8.312;2023-04-24T09:44:26;8.00;8.00;3.00
27143;PMS1003;14672;50.250;8.312;2023-04-24T09:46:54;7.50;7.50;1.00
27143;PMS1003;14672;50.250;8.312;2023-04-24T09:49:25;6.00;6.00;1.00
27143;PMS1003;14672;50.250;8.312;2023-04-24T09:52:10;8.00;8.00;2.50
27143;PMS1003;14672;50.250;8.312;2023-04-24T09:54:36;6.00;6.00;1.00
27143;PMS1003;14672;50.250;8.312;2023-04-24T09:57:03;8.00;7.50;1.00
27143;PMS1003;14672;50.250;8.312;2023-04-24T09:59:30;6.00;6.00;1.00
27143;PMS1003;14672;50.250;8.312;2023-04-24T10:01:56;9.25;8.00;1.50
27143;PMS1003;14672;50.250;8.312;2023-04-24T10:04:26;10.00;8.75;3.25
27143;PMS1003;14672;50.250;8.312;2023-04-24T10:06:54;8.00;8.00;3.00
27143;PMS1003;14672;50.250;8.312;2023-04-24T10:09:23;8.00;8.00;1.00
27143;PMS1003;14672;50.250;8.312;2023-04-24T10:11:52;8.00;8.00;1.00
27143;PMS1003;14672;50.250;8.312;2023-04-24T10:14:21;15.50;13.00;4.50
27143;PMS1003;14672;50.250;8.312;2023-04-24T10:16:50;8.50;8.00;2.50
27143;PMS1003;14672;50.250;8.312;2023-04-24T10:19:18;10.25;10.25;3.00
27143;PMS1003;14672;50.250;8.312;2023-04-24T10:21:45;13.00;11.00;4.75
27143;PMS1003;14672;50.250;8.312;2023-04-24T10:24:15;8.00;8.00;3.00
27143;PMS1003;14672;50.250;8.312;2023-04-24T10:26:43;9.00;8.50;3.00
27143;PMS1003;14672;50.250;8.312;2023-04-24T10:29:14;6.50;6.50;2.00
27143;PMS1003;14672;50.250;8.312;2023-04-24T10:31:43;8.25;7.50;1.00
27143;PMS1003;14672;50.250;8.312;2023-04-24T10:34:13;6.50;6.00;1.00
27143;PMS1003;14672;50.250;8.312;2023-04-24T10:36:44;8.00;6.00;2.50
27143;PMS1003;14672;50.250;8.312;2023-04-24T10:39:15;6.00;6.00;3.00
27143;PMS1003;14672;50.250;8.312;2023-04-24T10:41:43;8.25;8.00;3.00
27143;PMS1003;14672;50.250;8.312;2023-04-24T10:44:14;6.00;6.00;1.00
27143;PMS1003;14672;50.250;8.312;2023-04-24T10:46:46;10.25;8.00;3.00
27143;PMS1003;14672;50.250;8.312;2023-04-24T10:49:27;5.25;5.25;1.00
27143;PMS1003;14672;50.250;8.312;2023-04-24T10:51:58;8.00;6.00;1.00
27143;PMS1003;14672;50.250;8.312;2023-04-24T10:59:44;6.50;6.50;1.50
27143;PMS1003;14672;50.250;8.312;2023-04-24T11:02:15;9.00;9.00;3.00
27143;PMS1003;14672;50.250;8.312;2023-04-24T11:04:41;7.25;7.00;2.00
27143;PMS1003;14672;50.250;8.312;2023-04-24T11:07:13;8.00;8.00;3.00
27143;PMS1003;14672;50.250;8.312;2023-04-24T11:09:39;9.00;9.00;3.50
27143;PMS1003;14672;50.250;8.312;2023-04-24T11:12:08;8.00;8.00;1.00
27143;PMS1003;14672;50.250;8.312;2023-04-24T11:17:37;6.00;6.00;1.00
27143;PMS1003;14672;50.250;8.312;2023-04-24T11:20:08;6.00;6.00;2.00
27143;PMS1003;14672;50.250;8.312;2023-04-24T11:22:37;10.50;8.75;3.00
27143;PMS1003;14672;50.250;8.312;2023-04-24T11:25:07;7.75;7.75;3.00
27143;PMS1003;14672;50.250;8.312;2023-04-24T11:27:40;9.00;8.75;3.00
27143;PMS1003;14672;50.250;8.312;2023-04-24T11:30:16;7.00;7.00;3.00
27143;PMS1003;14672;50.250;8.312;2023-04-24T11:32:47;8.00;7.00;2.00
27143;PMS1003;14672;50.250;8.312;2023-04-24T11:35:16;8.25;8.25;2.50
27143;PMS1003;14672;50.250;8.312;2023-04-24T11:37:50;8.50;8.50;3.00
27143;PMS1003;14672;50.250;8.312;2023-04-24T11:40:21;6.50;6.50;1.00
27143;PMS1003;14672;50.250;8.312;2023-04-24T11:42:48;10.75;8.50;3.25
27143;PMS1003;14672;50.250;8.312;2023-04-24T11:47:49;8.00;8.00;2.75
27143;PMS1003;14672;50.250;8.312;2023-04-24T11:50:17;11.25;10.00;2.00
27143;PMS1003;14672;50.250;8.312;2023-04-24T11:52:45;9.00;9.00;3.25
27143;PMS1003;14672;50.250;8.312;2023-04-24T11:57:45;10.75;10.75;3.00
27143;PMS1003;14672;50.250;8.312;2023-04-24T12:00:17;9.75;9.75;4.00
27143;PMS1003;14672;50.250;8.312;2023-04-24T12:02:48;11.00;11.00;4.00
27143;PMS1003;14672;50.250;8.312;2023-04-24T12:07:49;9.00;9.00;3.00
27143;PMS1003;14672;50.250;8.312;2023-04-24T12:10:19;10.67;10.67;4.00
27143;PMS1003;14672;50.250;8.312;2023-04-24T12:12:50;11.00;11.00;6.00
27143;PMS1003;14672;50.250;8.312;2023-04-24T12:15:17;11.00;11.00;4.00
27143;PMS1003;14672;50.250;8.312;2023-04-24T12:17:45;11.00;9.50;3.00
27143;PMS1003;14672;50.250;8.312;2023-04-24T12:20:11;14.50;14.00;6.00
27143;PMS1003;14672;50.250;8.312;2023-04-24T12:22:51;10.75;9.00;4.00
27143;PMS1003;14672;50.250;8.312;2023-04-24T12:25:26;15.00;14.00;3.25
27143;PMS1003;14672;50.250;8.312;2023-04-24T12:30:31;19.00;15.00;7.75
27143;PMS1003;14672;50.250;8.312;2023-04-24T12:33:00;13.50;13.50;5.00
27143;PMS1003;14672;50.250;8.312;2023-04-24T12:35:28;14.00;12.75;6.00
27143;PMS1003;14672;50.250;8.312;2023-04-24T12:38:05;14.25;12.00;4.50
27143;PMS1003;14672;50.250;8.312;2023-04-24T12:40:37;10.25;9.75;4.50
27143;PMS1003;14672;50.250;8.312;2023-04-24T12:43:12;14.33;13.67;6.00
27143;PMS1003;14672;50.250;8.312;2023-04-24T12:45:45;15.25;14.00;6.00
27143;PMS1003;14672;50.250;8.312;2023-04-24T12:48:12;12.75;12.75;5.50
27143;PMS1003;14672;50.250;8.312;2023-04-24T12:50:42;13.75;13.75;6.00
27143;PMS1003;14672;50.250;8.312;2023-04-24T12:53:08;12.00;12.00;6.00
27143;PMS1003;14672;50.250;8.312;2023-04-24T12:55:35;13.75;13.75;5.50
27143;PMS1003;14672;50.250;8.312;2023-04-24T12:58:02;13.25;12.75;5.50
27143;PMS1003;14672;50.250;8.312;2023-04-24T13:00:28;16.33;15.33;6.67
27143;PMS1003;14672;50.250;8.312;2023-04-24T13:02:54;15.00;14.67;6.00
27143;PMS1003;14672;50.250;8.312;2023-04-24T13:05:20;15.00;13.75;4.00
27143;PMS1003;14672;50.250;8.312;2023-04-24T13:07:46;13.00;12.00;6.00
27143;PMS1003;14672;50.250;8.312;2023-04-24T13:10:12;18.00;16.33;8.00
27143;PMS1003;14672;50.250;8.312;2023-04-24T13:12:38;11.50;11.25;4.50
27143;PMS1003;14672;50.250;8.312;2023-04-24T13:15:05;15.00;14.25;6.00
27143;PMS1003;14672;50.250;8.312;2023-04-24T13:17:32;10.75;10.75;4.50
27143;PMS1003;14672;50.250;8.312;2023-04-24T13:19:58;13.50;13.50;5.50
27143;PMS1003;14672;50.250;8.312;2023-04-24T13:22:24;12.00;12.00;6.00
27143;PMS1003;14672;50.250;8.312;2023-04-24T13:24:50;14.00;13.67;6.00
27143;PMS1003;14672;50.250;8.312;2023-04-24T13:27:16;16.00;14.75;6.00
27143;PMS1003;14672;50.250;8.312;2023-04-24T13:29:43;14.00;14.00;7.00
27143;PMS1003;14672;50.250;8.312;2023-04-24T13:32:09;14.33;14.33;7.33
27143;PMS1003;14672;50.250;8.312;2023-04-24T13:34:35;15.25;14.00;6.25
27143;PMS1003;14672;50.250;8.312;2023-04-24T13:37:01;14.25;14.25;6.00
27143;PMS1003;14672;50.250;8.312;2023-04-24T13:39:31;14.25;13.75;6.00
27143;PMS1003;14672;50.250;8.312;2023-04-24T13:41:57;17.00;17.00;7.00
27143;PMS1003;14672;50.250;8.312;2023-04-24T13:44:23;14.25;14.25;6.75
27143;PMS1003;14672;50.250;8.312;2023-04-24T13:46:52;14.75;14.00;6.25
27143;PMS1003;14672;50.250;8.312;2023-04-24T13:49:22;14.50;13.25;6.00
27143;PMS1003;14672;50.250;8.312;2023-04-24T13:51:52;15.00;14.50;6.75
27143;PMS1003;14672;50.250;8.312;2023-04-24T13:54:21;11.75;11.75;3.75
27143;PMS1003;14672;50.250;8.312;2023-04-24T13:56:50;15.00;15.00;6.25
27143;PMS1003;14672;50.250;8.312;2023-04-24T13:59:17;15.00;12.50;5.00
27143;PMS1003;14672;50.250;8.312;2023-04-24T14:01:44;16.25;15.25;7.00
27143;PMS1003;14672;50.250;8.312;2023-04-24T14:04:10;15.00;15.00;4.00
27143;PMS1003;14672;50.250;8.312;2023-04-24T14:06:37;12.75;12.75;5.50
27143;PMS1003;14672;50.250;8.312;2023-04-24T14:09:02;17.67;15.67;7.00
27143;PMS1003;14672;50.250;8.312;2023-04-24T14:11:28;16.67;13.00;6.00
27143;PMS1003;14672;50.250;8.312;2023-04-24T14:13:54;14.50;13.75;7.00
27143;PMS1003;14672;50.250;8.312;2023-04-24T14:16:23;19.25;16.00;6.25
27143;PMS1003;14672;50.250;8.312;2023-04-24T14:18:49;16.25;15.00;7.00
27143;PMS1003;14672;50.250;8.312;2023-04-24T14:21:15;16.25;16.25;8.00
27143;PMS1003;14672;50.250;8.312;2023-04-24T14:23:41;12.33;12.33;6.00
27143;PMS1003;14672;50.250;8.312;2023-04-24T14:26:07;15.67;14.00;6.67
27143;PMS1003;14672;50.250;8.312;2023-04-24T14:28:33;12.33;12.33;5.33